Kota Ria — 9VJK4 — position and weather

sailwx.info

Track history (hours):
 
Tides and Currents Weather Stations Pressure Air Temp Water Temp Dewpoint Dewpoint Depression Visibility Wind Speed Wind Dir Waves Ship Positions

Kota Ria

Last reported at 2014-Dec-16 10:23 UTC. Time now 2014-Dec-21 20:51 UTC.
Position N 01°15' E 104°06'.

Length 146 m; draft 5.8 m.

Type: Cargo ship. MMSI: 565050000.

Date/timePositionNaut miles runAvg speedWind from/ knotsBaromVisibWave heightAir tempDewpointWater temp
2014-Dec-16 10:23N 01°15' E 104°06'1112.3
2014-Dec-16 09:29N 01°13' E 103°55'8 8.1
2014-Dec-16 08:33N 01°13' E 103°48'4 3.8
2014-Dec-16 07:29N 01°17' E 103°46'0 0.0
2014-Dec-16 06:23N 01°17' E 103°46'0 0.0
2014-Dec-16 05:32N 01°17' E 103°46'0 0.0
2014-Dec-16 04:11N 01°17' E 103°46'0 0.0
2014-Dec-16 03:05N 01°17' E 103°46'0 0.0
2014-Dec-16 01:10N 01°17' E 103°46'0 0.0
2014-Dec-16 00:07N 01°17' E 103°46'0 0.0
2014-Dec-15 23:19N 01°17' E 103°46'0 0.0
2014-Dec-15 22:28N 01°17' E 103°46'0 0.0
2014-Dec-15 21:28N 01°17' E 103°46'0 0.0
2014-Dec-15 20:31N 01°17' E 103°46'0 0.2
2014-Dec-15 19:31N 01°17' E 103°46'0 0.0
2014-Dec-15 18:28N 01°17' E 103°46'0 0.0
2014-Dec-15 17:31N 01°17' E 103°46'0 0.0
2014-Dec-15 16:31N 01°17' E 103°46'0 0.0
2014-Dec-15 15:23N 01°17' E 103°46'0 0.0
2014-Dec-15 14:32N 01°17' E 103°46'0 0.0
2014-Dec-15 13:29N 01°17' E 103°46'0 0.0
2014-Dec-15 12:32N 01°17' E 103°46'0 0.0
2014-Dec-15 11:32N 01°17' E 103°46'0 0.0
2014-Dec-15 10:34N 01°17' E 103°46'4 3.6
2014-Dec-15 09:34N 01°14' E 103°48'9 9.1
2014-Dec-15 08:33N 01°14' E 103°57'7 7.0
2014-Dec-15 07:33N 01°16' E 104°04'1110.8
2014-Dec-15 06:33N 01°17' E 104°14'  
2014-Dec-09 11:31N 01°16' E 104°13'1413.7
2014-Dec-09 10:29N 01°14' E 103°59'1210.6
2014-Dec-09 09:22N 01°14' E 103°47'3 4.0
2014-Dec-09 08:31N 01°17' E 103°46'0 0.0
2014-Dec-09 05:31N 01°17' E 103°46'0 0.0
2014-Dec-09 02:13N 01°17' E 103°46'0 0.0
2014-Dec-09 01:25N 01°17' E 103°46'0 0.0
2014-Dec-08 19:19N 01°17' E 103°46'0 0.0
2014-Dec-08 17:33N 01°17' E 103°46'3 3.5
2014-Dec-08 16:33N 01°14' E 103°47'7 5.1
2014-Dec-08 15:16N 01°16' E 103°54'0 0.0
2014-Dec-08 11:16N 01°16' E 103°53'0 0.0
2014-Dec-08 10:28N 01°16' E 103°53'0 0.1
2014-Dec-08 09:22N 01°16' E 103°54'0 0.1
2014-Dec-08 08:31N 01°16' E 103°54'0 0.0
2014-Dec-08 07:28N 01°16' E 103°54'0 0.0
2014-Dec-08 06:31N 01°16' E 103°54'0 0.0
2014-Dec-08 05:28N 01°16' E 103°54'0 0.1
2014-Dec-08 04:22N 01°16' E 103°54'0 0.1
2014-Dec-08 03:22N 01°16' E 103°54'0 0.1
2014-Dec-08 02:22N 01°16' E 103°53'0 0.0
2014-Dec-08 01:28N 01°16' E 103°53'0 0.0
2014-Dec-08 00:28N 01°16' E 103°53'0 0.0
2014-Dec-07 23:10N 01°16' E 103°53'0 0.0
2014-Dec-07 22:28N 01°16' E 103°53'0 0.0
2014-Dec-07 21:22N 01°16' E 103°53'0 0.0
2014-Dec-07 20:28N 01°16' E 103°53'0 0.0
2014-Dec-07 19:28N 01°16' E 103°53'0 0.0
2014-Dec-07 18:10N 01°16' E 103°53'0 0.0
2014-Dec-07 17:22N 01°16' E 103°53'0 0.0
2014-Dec-07 13:28N 01°16' E 103°53'0 0.0
2014-Dec-07 12:25N 01°16' E 103°53'5 5.5
2014-Dec-07 11:33N 01°15' E 103°58'9 8.9
2014-Dec-07 10:32N 01°16' E 104°07'  
Track history (hours):
 
Tides and Currents Weather Stations Pressure Air Temp Water Temp Dewpoint Dewpoint Depression Visibility Wind Speed Wind Dir Waves Ship Positions

Kota Ria

Last reported at 2014-Dec-16 10:23 UTC. Time now 2014-Dec-21 20:51 UTC.
Position N 01°15' E 104°06'.

Length 146 m; draft 5.8 m.

Type: Cargo ship. MMSI: 565050000.

Date/timePositionNaut miles runAvg speedWind from/ knotsBaromVisibWave heightAir tempDewpointWater temp
2014-Dec-16 10:23N 01°15' E 104°06'1112.3
2014-Dec-16 09:29N 01°13' E 103°55'8 8.1
2014-Dec-16 08:33N 01°13' E 103°48'4 3.8
2014-Dec-16 07:29N 01°17' E 103°46'0 0.0
2014-Dec-16 06:23N 01°17' E 103°46'0 0.0
2014-Dec-16 05:32N 01°17' E 103°46'0 0.0
2014-Dec-16 04:11N 01°17' E 103°46'0 0.0
2014-Dec-16 03:05N 01°17' E 103°46'0 0.0
2014-Dec-16 01:10N 01°17' E 103°46'0 0.0
2014-Dec-16 00:07N 01°17' E 103°46'0 0.0
2014-Dec-15 23:19N 01°17' E 103°46'0 0.0
2014-Dec-15 22:28N 01°17' E 103°46'0 0.0
2014-Dec-15 21:28N 01°17' E 103°46'0 0.0
2014-Dec-15 20:31N 01°17' E 103°46'0 0.2
2014-Dec-15 19:31N 01°17' E 103°46'0 0.0
2014-Dec-15 18:28N 01°17' E 103°46'0 0.0
2014-Dec-15 17:31N 01°17' E 103°46'0 0.0
2014-Dec-15 16:31N 01°17' E 103°46'0 0.0
2014-Dec-15 15:23N 01°17' E 103°46'0 0.0
2014-Dec-15 14:32N 01°17' E 103°46'0 0.0
2014-Dec-15 13:29N 01°17' E 103°46'0 0.0
2014-Dec-15 12:32N 01°17' E 103°46'0 0.0
2014-Dec-15 11:32N 01°17' E 103°46'0 0.0
2014-Dec-15 10:34N 01°17' E 103°46'4 3.6
2014-Dec-15 09:34N 01°14' E 103°48'9 9.1
2014-Dec-15 08:33N 01°14' E 103°57'7 7.0
2014-Dec-15 07:33N 01°16' E 104°04'1110.8
2014-Dec-15 06:33N 01°17' E 104°14'  
2014-Dec-09 11:31N 01°16' E 104°13'1413.7
2014-Dec-09 10:29N 01°14' E 103°59'1210.6
2014-Dec-09 09:22N 01°14' E 103°47'3 4.0
2014-Dec-09 08:31N 01°17' E 103°46'0 0.0
2014-Dec-09 05:31N 01°17' E 103°46'0 0.0
2014-Dec-09 02:13N 01°17' E 103°46'0 0.0
2014-Dec-09 01:25N 01°17' E 103°46'0 0.0
2014-Dec-08 19:19N 01°17' E 103°46'0 0.0
2014-Dec-08 17:33N 01°17' E 103°46'3 3.5
2014-Dec-08 16:33N 01°14' E 103°47'7 5.1
2014-Dec-08 15:16N 01°16' E 103°54'0 0.0
2014-Dec-08 11:16N 01°16' E 103°53'0 0.0
2014-Dec-08 10:28N 01°16' E 103°53'0 0.1
2014-Dec-08 09:22N 01°16' E 103°54'0 0.1
2014-Dec-08 08:31N 01°16' E 103°54'0 0.0
2014-Dec-08 07:28N 01°16' E 103°54'0 0.0
2014-Dec-08 06:31N 01°16' E 103°54'0 0.0
2014-Dec-08 05:28N 01°16' E 103°54'0 0.1
2014-Dec-08 04:22N 01°16' E 103°54'0 0.1
2014-Dec-08 03:22N 01°16' E 103°54'0 0.1
2014-Dec-08 02:22N 01°16' E 103°53'0 0.0
2014-Dec-08 01:28N 01°16' E 103°53'0 0.0
2014-Dec-08 00:28N 01°16' E 103°53'0 0.0
2014-Dec-07 23:10N 01°16' E 103°53'0 0.0
2014-Dec-07 22:28N 01°16' E 103°53'0 0.0
2014-Dec-07 21:22N 01°16' E 103°53'0 0.0
2014-Dec-07 20:28N 01°16' E 103°53'0 0.0
2014-Dec-07 19:28N 01°16' E 103°53'0 0.0
2014-Dec-07 18:10N 01°16' E 103°53'0 0.0
2014-Dec-07 17:22N 01°16' E 103°53'0 0.0
2014-Dec-07 13:28N 01°16' E 103°53'0 0.0
2014-Dec-07 12:25N 01°16' E 103°53'5 5.5
2014-Dec-07 11:33N 01°15' E 103°58'9 8.9
2014-Dec-07 10:32N 01°16' E 104°07'  

Dump ship's entire track history